createdAt,value
2023-02-28T00:01:30.216Z,48.44
2023-02-28T00:03:58.420Z,48.55
2023-02-28T00:06:26.396Z,48.34
2023-02-28T00:08:54.486Z,48.29
2023-02-28T00:11:22.655Z,47.80
2023-02-28T00:13:50.669Z,47.98
2023-02-28T00:16:21.887Z,48.13
2023-02-28T00:18:50.275Z,48.12
2023-02-28T00:21:19.842Z,48.54
2023-02-28T00:23:47.787Z,47.69
2023-02-28T00:26:16.220Z,47.73
2023-02-28T00:28:46.912Z,48.84
2023-02-28T00:31:15.574Z,48.33
2023-02-28T00:33:44.033Z,48.47
2023-02-28T00:36:12.738Z,48.13
2023-02-28T00:38:41.798Z,48.29
2023-02-28T00:41:09.918Z,48.10
2023-02-28T00:43:38.983Z,48.03
2023-02-28T00:46:07.681Z,48.64
2023-02-28T00:48:36.538Z,48.77
2023-02-28T00:51:05.078Z,49.02
2023-02-28T00:53:34.171Z,48.50
2023-02-28T00:56:03.070Z,48.95
2023-02-28T00:58:30.643Z,48.52
2023-02-28T01:00:59.323Z,48.73
2023-02-28T01:03:27.053Z,48.50
2023-02-28T01:05:55.394Z,48.69
2023-02-28T01:08:23.424Z,48.37
2023-02-28T01:10:52.568Z,48.58
2023-02-28T01:13:21.440Z,48.87
2023-02-28T01:15:56.260Z,48.57
2023-02-28T01:18:25.507Z,49.05
2023-02-28T01:20:53.644Z,49.09
2023-02-28T01:23:25.505Z,49.56
2023-02-28T01:25:54.272Z,49.54
2023-02-28T01:28:22.519Z,49.29
2023-02-28T01:30:52.800Z,49.82
2023-02-28T01:33:20.935Z,50.19
2023-02-28T01:35:48.673Z,49.75
2023-02-28T01:38:22.479Z,49.74
2023-02-28T01:40:51.618Z,49.88
2023-02-28T01:43:31.982Z,50.00
2023-02-28T01:46:00.673Z,50.04
2023-02-28T01:48:36.661Z,49.78
2023-02-28T01:51:11.236Z,49.82
2023-02-28T01:53:47.321Z,49.92
2023-02-28T01:56:21.650Z,49.76
2023-02-28T01:58:53.006Z,49.41
2023-02-28T02:01:27.164Z,49.38
2023-02-28T02:03:59.047Z,49.41
2023-02-28T02:06:35.640Z,49.14
2023-02-28T02:09:04.036Z,49.15
2023-02-28T02:11:32.038Z,49.64
2023-02-28T02:14:18.469Z,49.48
2023-02-28T02:17:17.486Z,49.54
2023-02-28T02:20:17.765Z,49.27
2023-02-28T02:23:19.999Z,49.13
2023-02-28T02:25:51.040Z,49.36
2023-02-28T02:28:37.274Z,48.94
2023-02-28T02:31:49.406Z,48.66
2023-02-28T02:34:29.206Z,48.73
2023-02-28T02:37:18.946Z,48.47
2023-02-28T02:40:12.437Z,48.66
2023-02-28T02:42:43.779Z,48.57
2023-02-28T02:45:18.602Z,48.37
2023-02-28T02:47:46.832Z,47.82
2023-02-28T02:50:20.907Z,48.18
2023-02-28T02:52:56.653Z,48.40
2023-02-28T02:55:25.253Z,48.62
2023-02-28T02:57:59.733Z,48.78
2023-02-28T03:00:34.637Z,48.80
2023-02-28T03:03:07.082Z,48.50
2023-02-28T03:05:45.667Z,48.72
2023-02-28T03:08:15.570Z,48.60
2023-02-28T03:10:47.252Z,48.89
2023-02-28T03:13:21.592Z,48.81
2023-02-28T03:15:58.259Z,49.17
2023-02-28T03:18:38.656Z,49.35
2023-02-28T03:21:26.754Z,49.17
2023-02-28T03:23:54.368Z,48.78
2023-02-28T03:26:24.778Z,49.48
2023-02-28T03:28:57.961Z,49.22
2023-02-28T03:31:44.842Z,49.01
2023-02-28T03:34:23.718Z,49.25
2023-02-28T03:37:00.396Z,49.57
2023-02-28T03:39:44.368Z,49.65
2023-02-28T03:42:23.776Z,49.50
2023-02-28T03:45:10.604Z,49.90
2023-02-28T03:47:42.279Z,50.05
2023-02-28T03:50:32.546Z,50.23
2023-02-28T03:53:05.994Z,51.00
2023-02-28T03:55:39.692Z,51.29
2023-02-28T03:58:31.755Z,51.05
2023-02-28T04:01:09.837Z,50.89
2023-02-28T04:03:40.767Z,51.31
2023-02-28T04:06:17.109Z,51.51
2023-02-28T04:08:45.177Z,51.46
2023-02-28T04:11:18.355Z,50.56
2023-02-28T04:13:47.688Z,50.98
2023-02-28T04:16:32.103Z,50.80
2023-02-28T04:19:03.927Z,51.67
2023-02-28T04:21:35.244Z,51.20
2023-02-28T04:24:04.717Z,51.26
2023-02-28T04:26:37.606Z,51.53
2023-02-28T04:29:06.800Z,51.47
2023-02-28T04:31:35.699Z,51.74
2023-02-28T04:34:04.312Z,51.18
2023-02-28T04:36:32.362Z,51.62
2023-02-28T04:38:59.937Z,51.96
2023-02-28T04:41:30.214Z,51.50
2023-02-28T04:44:00.186Z,51.67
2023-02-28T04:46:27.799Z,51.48
2023-02-28T04:48:55.577Z,51.69
2023-02-28T04:51:23.552Z,51.95
2023-02-28T04:53:51.140Z,51.97
2023-02-28T04:56:19.130Z,51.88
2023-02-28T04:58:47.516Z,52.00
2023-02-28T05:01:25.347Z,52.13
2023-02-28T05:03:55.319Z,52.29
2023-02-28T05:06:25.554Z,51.63
2023-02-28T05:08:54.284Z,51.47
2023-02-28T05:11:35.921Z,51.69
2023-02-28T05:14:07.038Z,51.34
2023-02-28T05:16:35.021Z,51.36
2023-02-28T05:19:03.643Z,51.53
2023-02-28T05:21:36.801Z,51.31
2023-02-28T05:24:13.100Z,50.62
2023-02-28T05:26:43.734Z,50.70
2023-02-28T05:29:11.858Z,51.08
2023-02-28T05:31:39.918Z,50.99
2023-02-28T05:34:07.793Z,50.76
2023-02-28T05:36:38.652Z,50.44
2023-02-28T05:39:08.310Z,50.51
2023-02-28T05:41:36.300Z,50.27
2023-02-28T05:44:04.244Z,50.35
2023-02-28T05:46:32.202Z,50.66
2023-02-28T05:49:01.287Z,50.89
2023-02-28T05:51:29.327Z,50.94
2023-02-28T05:54:01.506Z,50.52
2023-02-28T05:56:29.365Z,50.37
2023-02-28T05:58:57.079Z,50.83
2023-02-28T06:01:26.966Z,50.43
2023-02-28T06:03:55.524Z,50.90
2023-02-28T06:06:23.527Z,50.23
2023-02-28T06:08:51.732Z,50.55
2023-02-28T06:11:20.953Z,50.67
2023-02-28T06:13:48.711Z,50.81
2023-02-28T06:16:16.721Z,51.31
2023-02-28T06:18:44.746Z,51.56
2023-02-28T06:21:14.031Z,50.99
2023-02-28T06:23:41.729Z,51.03
2023-02-28T06:26:09.304Z,50.75
2023-02-28T06:28:37.007Z,51.62
2023-02-28T06:31:14.211Z,50.58
2023-02-28T06:33:42.358Z,50.84
2023-02-28T06:36:12.244Z,49.92
2023-02-28T06:38:42.017Z,51.18
2023-02-28T06:41:10.108Z,50.88
2023-02-28T06:43:41.699Z,50.80
2023-02-28T06:46:14.581Z,50.85
2023-02-28T06:48:45.703Z,50.65
2023-02-28T06:51:18.724Z,50.57
2023-02-28T06:53:47.141Z,50.43
2023-02-28T06:56:16.867Z,50.38
2023-02-28T06:58:49.749Z,50.03
2023-02-28T07:01:18.622Z,49.91
2023-02-28T07:03:47.998Z,50.26
2023-02-28T07:06:18.783Z,49.82
2023-02-28T07:08:46.546Z,49.54
2023-02-28T07:11:15.169Z,49.30
2023-02-28T07:13:42.930Z,49.02
2023-02-28T07:16:12.528Z,48.83
2023-02-28T07:18:40.260Z,48.88
2023-02-28T07:21:10.660Z,48.64
2023-02-28T07:23:39.483Z,48.96
2023-02-28T07:26:09.165Z,48.71
2023-02-28T07:28:36.674Z,48.32
2023-02-28T07:31:06.602Z,48.39
2023-02-28T07:33:35.255Z,48.15
2023-02-28T07:36:08.562Z,47.94
2023-02-28T07:38:38.833Z,46.88
2023-02-28T07:41:06.428Z,47.05
2023-02-28T07:43:34.209Z,45.93
2023-02-28T07:46:07.138Z,46.12
2023-02-28T07:48:35.023Z,45.91
2023-02-28T07:51:02.806Z,45.53
2023-02-28T07:53:31.352Z,45.13
2023-02-28T07:56:01.896Z,45.91
2023-02-28T07:58:31.111Z,45.79
2023-02-28T08:01:05.883Z,45.48
2023-02-28T08:03:33.387Z,45.33
2023-02-28T08:06:01.318Z,44.49
2023-02-28T08:08:32.390Z,45.11
2023-02-28T08:11:02.314Z,44.71
2023-02-28T08:13:31.253Z,44.11
2023-02-28T08:15:59.412Z,44.25
2023-02-28T08:18:27.534Z,44.18
2023-02-28T08:20:55.591Z,43.21
2023-02-28T08:23:23.538Z,43.86
2023-02-28T08:25:56.039Z,43.86
2023-02-28T08:28:27.104Z,43.75
2023-02-28T08:30:55.745Z,43.57
2023-02-28T08:33:24.432Z,43.54
2023-02-28T08:35:57.546Z,44.18
2023-02-28T08:38:25.232Z,43.81
2023-02-28T08:40:59.981Z,43.18
2023-02-28T08:43:28.479Z,43.45
2023-02-28T08:46:00.059Z,42.91
2023-02-28T08:48:41.049Z,42.64
2023-02-28T08:51:19.648Z,41.82
2023-02-28T08:53:50.351Z,41.87
2023-02-28T08:56:18.677Z,41.11
2023-02-28T08:58:48.689Z,39.83
2023-02-28T09:01:21.552Z,38.43
2023-02-28T09:03:51.590Z,36.87
2023-02-28T09:06:21.587Z,36.36
2023-02-28T09:08:50.614Z,35.09
2023-02-28T09:11:19.750Z,35.21
2023-02-28T09:13:47.681Z,35.13
2023-02-28T09:16:17.409Z,34.96
2023-02-28T09:18:46.118Z,33.96
2023-02-28T09:21:18.753Z,33.56
2023-02-28T09:23:48.784Z,33.31
2023-02-28T09:26:24.718Z,32.71
2023-02-28T09:28:53.115Z,32.72
2023-02-28T09:31:24.346Z,31.78
2023-02-28T09:33:54.975Z,31.87
2023-02-28T09:36:28.935Z,31.38
2023-02-28T09:39:02.872Z,30.07
2023-02-28T09:41:42.412Z,30.33
2023-02-28T09:44:19.504Z,30.19
2023-02-28T09:46:51.729Z,29.34
2023-02-28T09:49:24.284Z,28.76
2023-02-28T09:52:06.382Z,28.01
2023-02-28T09:54:34.358Z,27.30
2023-02-28T09:57:25.486Z,27.61
2023-02-28T10:00:19.304Z,27.71
2023-02-28T10:03:04.288Z,27.80
2023-02-28T10:05:39.709Z,27.36
2023-02-28T10:08:22.424Z,27.32
2023-02-28T10:10:56.378Z,27.36
2023-02-28T10:14:02.352Z,26.80
2023-02-28T10:16:33.278Z,26.72
2023-02-28T10:19:12.388Z,26.66
2023-02-28T10:21:47.632Z,26.05
2023-02-28T10:24:28.386Z,26.20
2023-02-28T10:27:02.593Z,27.56
2023-02-28T10:29:33.985Z,27.25
2023-02-28T10:32:04.516Z,26.76
2023-02-28T10:34:32.113Z,27.08
2023-02-28T10:37:08.351Z,26.12
2023-02-28T10:39:47.795Z,26.69
2023-02-28T10:42:33.586Z,26.66
2023-02-28T10:45:18.168Z,27.00
2023-02-28T10:48:01.396Z,27.41
2023-02-28T10:50:31.025Z,26.29
2023-02-28T10:53:17.494Z,27.10
2023-02-28T10:55:45.310Z,27.17
2023-02-28T10:58:54.748Z,26.55
2023-02-28T11:01:26.924Z,26.60
2023-02-28T11:03:55.003Z,27.87
2023-02-28T11:06:30.326Z,28.22
2023-02-28T11:09:01.916Z,27.54
2023-02-28T11:11:42.490Z,27.48
2023-02-28T11:14:42.428Z,26.61
2023-02-28T11:17:21.447Z,25.76
2023-02-28T11:19:52.553Z,25.91
2023-02-28T11:22:22.790Z,26.47
2023-02-28T11:24:56.407Z,26.44
2023-02-28T11:27:43.992Z,26.63
2023-02-28T11:30:37.543Z,25.79
2023-02-28T11:33:31.369Z,26.84
2023-02-28T11:36:04.739Z,26.99
2023-02-28T11:38:36.044Z,27.62
2023-02-28T11:41:32.078Z,26.09
2023-02-28T11:44:00.175Z,26.11
2023-02-28T11:46:44.562Z,26.86
2023-02-28T11:49:35.309Z,27.34
2023-02-28T11:52:09.772Z,28.00
2023-02-28T11:54:49.361Z,28.02
2023-02-28T11:57:26.817Z,28.19
2023-02-28T12:00:24.452Z,29.60
2023-02-28T12:02:52.490Z,27.55
2023-02-28T12:05:37.522Z,27.78
2023-02-28T12:08:36.120Z,28.51
2023-02-28T12:11:30.937Z,28.11
2023-02-28T12:14:26.621Z,27.96
2023-02-28T12:17:13.258Z,27.66
2023-02-28T12:19:41.123Z,27.81
2023-02-28T12:22:52.794Z,26.30
2023-02-28T12:25:45.775Z,28.16
2023-02-28T12:28:18.481Z,27.03
2023-02-28T12:30:54.785Z,27.03
2023-02-28T12:33:26.268Z,27.99
2023-02-28T12:35:56.941Z,27.63
2023-02-28T12:38:37.829Z,27.65
2023-02-28T12:41:23.754Z,26.85
2023-02-28T12:44:01.983Z,26.71
2023-02-28T12:46:41.118Z,27.83
2023-02-28T12:49:18.421Z,27.16
2023-02-28T12:51:48.063Z,26.89
2023-02-28T12:54:25.824Z,25.53
2023-02-28T12:56:59.080Z,26.13
2023-02-28T12:59:39.672Z,27.53
2023-02-28T13:02:30.970Z,26.52
2023-02-28T13:05:14.061Z,25.45
2023-02-28T13:08:10.919Z,25.34
2023-02-28T13:10:43.940Z,25.59
2023-02-28T13:13:21.006Z,25.80
2023-02-28T13:16:07.353Z,26.68
2023-02-28T13:18:46.806Z,25.52
2023-02-28T13:21:32.126Z,24.72
2023-02-28T13:24:03.312Z,24.23
2023-02-28T13:26:31.733Z,25.57
2023-02-28T13:29:01.103Z,25.27
2023-02-28T13:31:29.522Z,26.38
2023-02-28T13:34:03.414Z,26.60
2023-02-28T13:36:33.652Z,26.50
2023-02-28T13:39:06.459Z,25.57
2023-02-28T13:41:36.991Z,24.15
2023-02-28T13:44:10.677Z,24.11
2023-02-28T13:46:49.649Z,23.87
2023-02-28T13:49:21.286Z,21.40
2023-02-28T13:51:52.068Z,21.20
2023-02-28T13:54:36.844Z,22.19
2023-02-28T13:57:13.997Z,23.53
2023-02-28T13:59:53.426Z,22.89
2023-02-28T14:02:45.952Z,23.87
2023-02-28T14:05:18.424Z,22.08
2023-02-28T14:07:54.343Z,23.56
2023-02-28T14:10:40.177Z,22.21
2023-02-28T14:13:45.865Z,20.65
2023-02-28T14:16:22.530Z,21.54
2023-02-28T14:19:31.952Z,22.11
2023-02-28T14:22:37.317Z,23.48
2023-02-28T14:25:41.331Z,23.96
2023-02-28T14:28:37.806Z,23.01
2023-02-28T14:31:12.522Z,21.70
2023-02-28T14:34:15.413Z,22.10
2023-02-28T14:36:44.696Z,24.05
2023-02-28T14:39:20.536Z,23.78
2023-02-28T14:41:48.244Z,23.54
2023-02-28T14:44:26.543Z,22.22
2023-02-28T14:47:00.028Z,22.42
2023-02-28T14:49:31.467Z,20.77
2023-02-28T14:52:28.348Z,22.40
2023-02-28T14:55:00.447Z,24.36
2023-02-28T14:57:30.431Z,22.92
2023-02-28T15:00:26.650Z,21.75
2023-02-28T15:02:56.103Z,21.77
2023-02-28T15:05:35.116Z,21.59
2023-02-28T15:08:13.583Z,23.13
2023-02-28T15:10:54.928Z,23.76
2023-02-28T15:13:24.082Z,26.50
2023-02-28T15:16:05.075Z,24.99
2023-02-28T15:18:55.533Z,23.77
2023-02-28T15:21:31.599Z,23.16
2023-02-28T15:24:06.653Z,22.79
2023-02-28T15:26:39.772Z,21.66
2023-02-28T15:29:18.443Z,23.47
2023-02-28T15:31:57.489Z,24.44
2023-02-28T15:34:45.121Z,23.07
2023-02-28T15:37:47.890Z,23.91
2023-02-28T15:40:24.708Z,24.41
2023-02-28T15:43:31.229Z,25.37
2023-02-28T15:45:59.399Z,24.96
2023-02-28T15:48:31.413Z,24.82
2023-02-28T15:51:07.416Z,26.16
2023-02-28T15:53:50.425Z,26.04
2023-02-28T15:56:48.332Z,26.56
2023-02-28T15:59:21.574Z,28.85
2023-02-28T16:02:22.020Z,29.23
2023-02-28T16:05:03.229Z,31.63
2023-02-28T16:07:31.785Z,33.58
2023-02-28T16:10:01.089Z,35.94
2023-02-28T16:12:31.348Z,36.86
2023-02-28T16:15:03.881Z,37.86
2023-02-28T16:17:36.216Z,37.75
2023-02-28T16:20:15.025Z,38.07
2023-02-28T16:22:43.803Z,38.11
2023-02-28T16:25:16.976Z,39.18
2023-02-28T16:27:50.349Z,39.66
2023-02-28T16:30:25.168Z,39.64
2023-02-28T16:32:56.171Z,40.51
2023-02-28T16:35:24.702Z,40.60
2023-02-28T16:37:53.737Z,40.58
2023-02-28T16:40:26.523Z,40.71
2023-02-28T16:42:59.708Z,40.94
2023-02-28T16:45:29.781Z,40.79
2023-02-28T16:47:58.140Z,41.02
2023-02-28T16:50:29.815Z,40.90
2023-02-28T16:52:58.160Z,40.80
2023-02-28T16:55:27.303Z,41.32
2023-02-28T16:57:58.347Z,42.11
2023-02-28T17:00:27.399Z,42.27
2023-02-28T17:02:55.751Z,42.37
2023-02-28T17:05:24.371Z,42.60
2023-02-28T17:07:52.481Z,42.90
2023-02-28T17:10:26.479Z,43.20
2023-02-28T17:12:58.403Z,43.36
2023-02-28T17:15:32.168Z,44.39
2023-02-28T17:18:00.561Z,45.22
2023-02-28T17:20:28.744Z,45.81
2023-02-28T17:22:57.082Z,46.40
2023-02-28T17:25:25.713Z,47.19
2023-02-28T17:27:54.211Z,48.02
2023-02-28T17:30:25.667Z,48.49
2023-02-28T17:32:53.634Z,48.74
2023-02-28T17:35:22.286Z,49.03
2023-02-28T17:37:50.780Z,49.67
2023-02-28T17:40:23.633Z,49.92
2023-02-28T17:42:53.465Z,50.78
2023-02-28T17:45:21.141Z,51.68
2023-02-28T17:47:51.388Z,51.85
2023-02-28T17:50:22.760Z,52.08
2023-02-28T17:52:51.547Z,52.55
2023-02-28T17:55:22.642Z,53.53
2023-02-28T17:57:50.869Z,53.20
2023-02-28T18:00:19.231Z,53.94
2023-02-28T18:02:47.799Z,54.27
2023-02-28T18:05:15.907Z,54.28
2023-02-28T18:07:43.776Z,55.13
2023-02-28T18:10:20.736Z,56.02
2023-02-28T18:12:50.880Z,56.81
2023-02-28T18:15:21.625Z,57.20
2023-02-28T18:17:50.608Z,56.80
2023-02-28T18:20:18.952Z,57.17
2023-02-28T18:22:47.567Z,57.74
2023-02-28T18:25:17.152Z,57.95
2023-02-28T18:27:58.426Z,57.22
2023-02-28T18:30:30.866Z,58.45
2023-02-28T18:32:59.788Z,58.35
2023-02-28T18:35:35.429Z,59.08
2023-02-28T18:38:06.143Z,59.41
2023-02-28T18:40:34.063Z,60.37
2023-02-28T18:43:02.874Z,61.50
2023-02-28T18:45:32.043Z,61.50
2023-02-28T18:47:59.657Z,61.92
2023-02-28T18:50:27.847Z,62.42
2023-02-28T18:52:57.904Z,62.56
2023-02-28T18:55:27.873Z,63.55
2023-02-28T18:57:56.621Z,63.19
2023-02-28T19:00:25.839Z,64.12
2023-02-28T19:02:54.443Z,64.68
2023-02-28T19:05:22.464Z,64.83
2023-02-28T19:07:50.851Z,64.61
2023-02-28T19:10:19.251Z,64.15
2023-02-28T19:12:47.832Z,64.80
2023-02-28T19:15:15.379Z,65.59
2023-02-28T19:17:46.299Z,64.75
2023-02-28T19:20:14.392Z,66.60
2023-02-28T19:22:42.747Z,67.43
2023-02-28T19:25:11.573Z,68.33
2023-02-28T19:27:39.855Z,68.72
2023-02-28T19:30:08.884Z,68.96
2023-02-28T19:32:37.049Z,69.16
2023-02-28T19:35:05.620Z,70.18
2023-02-28T19:37:38.337Z,69.94
2023-02-28T19:40:08.910Z,72.14
2023-02-28T19:42:36.555Z,72.69
2023-02-28T19:45:05.641Z,72.51
2023-02-28T19:47:33.349Z,73.12
2023-02-28T19:50:01.695Z,73.16
2023-02-28T19:52:29.808Z,72.73
2023-02-28T19:54:58.847Z,73.16
2023-02-28T19:57:26.571Z,73.19
2023-02-28T19:59:54.548Z,72.85
2023-02-28T20:02:23.451Z,73.65
2023-02-28T20:04:51.739Z,74.22
2023-02-28T20:07:20.438Z,75.09
2023-02-28T20:09:49.134Z,75.87
2023-02-28T20:12:25.100Z,75.00
2023-02-28T20:14:56.194Z,76.70
2023-02-28T20:17:24.709Z,76.40
2023-02-28T20:19:52.295Z,76.30
2023-02-28T20:22:20.602Z,74.90
2023-02-28T20:24:48.821Z,74.92
2023-02-28T20:27:17.418Z,74.29
2023-02-28T20:29:46.259Z,74.34
2023-02-28T20:32:13.932Z,72.70
2023-02-28T20:34:42.170Z,71.63
2023-02-28T20:37:09.773Z,70.83
2023-02-28T20:39:37.774Z,71.06
2023-02-28T20:42:06.389Z,71.96
2023-02-28T20:44:34.408Z,70.50
2023-02-28T20:47:02.730Z,70.65
2023-02-28T20:49:30.638Z,68.57
2023-02-28T20:51:58.624Z,67.84
2023-02-28T20:54:26.619Z,68.15
2023-02-28T20:56:55.037Z,68.13
2023-02-28T20:59:22.989Z,69.28
2023-02-28T21:01:50.537Z,68.86
2023-02-28T21:04:18.595Z,70.65
2023-02-28T21:06:47.614Z,70.14
2023-02-28T21:09:16.557Z,68.95
2023-02-28T21:11:46.071Z,69.01
2023-02-28T21:14:17.706Z,68.69
2023-02-28T21:16:46.151Z,68.98
2023-02-28T21:19:14.322Z,68.75
2023-02-28T21:21:44.341Z,67.32
2023-02-28T21:24:15.233Z,66.86
2023-02-28T21:26:45.256Z,66.32
2023-02-28T21:29:14.059Z,65.75
2023-02-28T21:31:42.169Z,64.77
2023-02-28T21:34:12.853Z,64.38
2023-02-28T21:36:45.705Z,63.93
2023-02-28T21:39:17.131Z,63.75
2023-02-28T21:41:45.315Z,63.77
2023-02-28T21:44:18.460Z,63.05
2023-02-28T21:46:49.218Z,62.39
2023-02-28T21:49:17.731Z,61.71
2023-02-28T21:51:45.558Z,61.99
2023-02-28T21:54:14.583Z,61.74
2023-02-28T21:56:43.056Z,61.52
2023-02-28T21:59:11.681Z,62.07
2023-02-28T22:01:45.724Z,63.49
2023-02-28T22:04:22.557Z,62.99
2023-02-28T22:06:53.722Z,63.28
2023-02-28T22:09:22.841Z,63.76
2023-02-28T22:11:52.028Z,63.42
2023-02-28T22:14:20.135Z,62.54
2023-02-28T22:16:51.775Z,62.44
2023-02-28T22:19:23.120Z,59.65
2023-02-28T22:21:53.685Z,56.76
2023-02-28T22:24:25.034Z,55.59
2023-02-28T22:26:53.047Z,54.36
2023-02-28T22:29:21.586Z,53.52
2023-02-28T22:31:50.784Z,52.26
2023-02-28T22:34:18.665Z,51.57
2023-02-28T22:36:46.731Z,51.25
2023-02-28T22:39:14.779Z,51.47
2023-02-28T22:41:43.193Z,51.67
2023-02-28T22:44:11.040Z,51.40
2023-02-28T22:46:38.980Z,51.50
2023-02-28T22:49:07.511Z,52.04
2023-02-28T22:51:35.655Z,51.53
2023-02-28T22:54:04.524Z,52.12
2023-02-28T22:56:32.614Z,52.01
2023-02-28T22:59:01.659Z,51.24
2023-02-28T23:01:32.058Z,51.12
2023-02-28T23:04:01.391Z,50.75
2023-02-28T23:06:37.776Z,50.75
2023-02-28T23:09:08.167Z,50.84
2023-02-28T23:11:40.802Z,51.05
2023-02-28T23:14:10.183Z,50.73
2023-02-28T23:16:42.822Z,51.93
2023-02-28T23:19:13.795Z,51.48
2023-02-28T23:21:43.096Z,51.66
2023-02-28T23:24:12.731Z,51.97
2023-02-28T23:26:43.922Z,51.67
2023-02-28T23:29:13.984Z,52.25
2023-02-28T23:31:42.648Z,52.03
2023-02-28T23:34:11.266Z,51.70
2023-02-28T23:36:43.547Z,52.17
2023-02-28T23:39:13.639Z,52.14
2023-02-28T23:41:41.812Z,51.26
2023-02-28T23:44:13.773Z,51.53
2023-02-28T23:46:41.460Z,51.17
2023-02-28T23:49:09.247Z,51.48
2023-02-28T23:51:37.611Z,51.92
2023-02-28T23:54:06.287Z,51.74
2023-02-28T23:56:34.709Z,51.59
2023-02-28T23:59:02.181Z,51.60
